Time;durP1;ratioP1;P1;durP2;ratioP2;P2;SDS_P1;SDS_P2;PMS_P1;PMS_P2;Temp;Humidity;BMP_temperature;BMP_pressure;BME280_temperature;BME280_humidity;BME280_pressure;Samples;Min_cycle;Max_cycle;Signal;HPM_P1;HPM_P2
2023/06/21 00:01:06;;;;;;;34.70;23.10;;;;;;;;;;5056133;28;25118;-75
2023/06/21 00:03:32;;;;;;;32.97;23.15;;;;;;;;;;5068063;28;25053;-77
2023/06/21 00:05:58;;;;;;;34.70;22.52;;;;;;;;;;5050178;28;25132;-77
2023/06/21 00:08:25;;;;;;;39.95;22.98;;;;;;;;;;5042973;28;25063;-77
2023/06/21 00:10:51;;;;;;;35.35;22.60;;;;;;;;;;5070354;28;25058;-76
2023/06/21 00:13:17;;;;;;;39.92;24.02;;;;;;;;;;5064082;28;25088;-77
2023/06/21 00:15:43;;;;;;;42.63;24.67;;;;;;;;;;5075202;28;25050;-76
2023/06/21 00:18:09;;;;;;;37.85;24.02;;;;;;;;;;5094932;28;25078;-75
2023/06/21 00:20:37;;;;;;;37.10;24.08;;;;;;;;;;5095346;28;25082;-77
2023/06/21 00:23:03;;;;;;;36.20;23.63;;;;;;;;;;5076515;28;25046;-74
2023/06/21 00:25:29;;;;;;;39.65;24.20;;;;;;;;;;5082998;28;25117;-77
2023/06/21 00:27:55;;;;;;;37.20;23.90;;;;;;;;;;5067316;28;25070;-75
2023/06/21 00:30:21;;;;;;;38.45;22.23;;;;;;;;;;5050118;28;25136;-77
2023/06/21 00:32:47;;;;;;;29.90;21.05;;;;;;;;;;5074236;28;25064;-76
2023/06/21 00:35:13;;;;;;;28.55;20.35;;;;;;;;;;5062117;28;25065;-79
2023/06/21 00:37:39;;;;;;;37.88;24.02;;;;;;;;;;5041344;28;25061;-76
2023/06/21 00:40:10;;;;;;;41.60;25.48;;;;;;;;;;5070972;28;25077;-78
2023/06/21 00:42:36;;;;;;;34.13;24.08;;;;;;;;;;5035621;28;25082;-77
2023/06/21 00:45:02;;;;;;;37.92;24.80;;;;;;;;;;5045595;28;25142;-76
2023/06/21 00:47:28;;;;;;;41.33;24.63;;;;;;;;;;5043714;28;25069;-77
2023/06/21 00:49:54;;;;;;;45.83;26.77;;;;;;;;;;5048721;28;25068;-76
2023/06/21 00:52:20;;;;;;;39.47;25.95;;;;;;;;;;5071140;28;25147;-77
2023/06/21 00:54:46;;;;;;;41.38;25.73;;;;;;;;;;5079231;28;25114;-75
2023/06/21 00:57:12;;;;;;;48.30;27.52;;;;;;;;;;5077543;28;25090;-76
2023/06/21 00:59:38;;;;;;;46.17;26.92;;;;;;;;;;5053883;28;25077;-77
2023/06/21 01:02:05;;;;;;;50.67;30.60;;;;;;;;;;5064870;28;25149;-78
2023/06/21 01:04:32;;;;;;;54.30;30.90;;;;;;;;;;5067139;28;25055;-78
2023/06/21 01:07:18;;;;;;;45.20;28.83;;;;;;;;;;5073356;28;25067;-78
2023/06/21 01:10:01;;;;;;;58.55;33.13;;;;;;;;;;5064986;28;25075;-77
2023/06/21 01:12:46;;;;;;;65.63;34.55;;;;;;;;;;5066105;28;25099;-76
2023/06/21 01:15:14;;;;;;;58.50;34.80;;;;;;;;;;5046275;28;25100;-78
2023/06/21 01:17:41;;;;;;;63.17;34.90;;;;;;;;;;5039855;28;25045;-76
2023/06/21 01:20:15;;;;;;;68.72;35.67;;;;;;;;;;5059592;28;25155;-77
2023/06/21 01:22:44;;;;;;;65.60;36.33;;;;;;;;;;5050253;28;25154;-77
2023/06/21 01:25:22;;;;;;;70.70;36.88;;;;;;;;;;5073494;28;25055;-74
2023/06/21 01:27:52;;;;;;;69.15;36.72;;;;;;;;;;5083825;28;25066;-76
2023/06/21 01:30:20;;;;;;;62.50;35.00;;;;;;;;;;5081991;28;25158;-74
2023/06/21 01:32:47;;;;;;;60.25;35.15;;;;;;;;;;5067284;28;25096;-78
2023/06/21 01:35:13;;;;;;;67.43;36.55;;;;;;;;;;5064828;28;25118;-78
2023/06/21 01:37:42;;;;;;;65.65;35.45;;;;;;;;;;5071416;28;25054;-78
2023/06/21 01:40:11;;;;;;;69.15;36.22;;;;;;;;;;5063852;28;25060;-78
2023/06/21 01:42:37;;;;;;;68.63;36.63;;;;;;;;;;5067075;28;25043;-76
2023/06/21 01:45:04;;;;;;;63.10;33.50;;;;;;;;;;5063591;28;25077;-75
2023/06/21 01:47:30;;;;;;;60.08;33.58;;;;;;;;;;5040156;28;25059;-76
2023/06/21 01:49:56;;;;;;;52.78;31.58;;;;;;;;;;5071324;28;25182;-77
2023/06/21 01:52:24;;;;;;;62.28;32.70;;;;;;;;;;5044971;28;25191;-76
2023/06/21 01:54:50;;;;;;;68.00;33.58;;;;;;;;;;5071056;28;25060;-76
2023/06/21 01:57:17;;;;;;;66.00;35.33;;;;;;;;;;5059694;28;25054;-76
2023/06/21 01:59:43;;;;;;;55.58;33.05;;;;;;;;;;5055569;28;25092;-76
2023/06/21 02:02:10;;;;;;;59.30;33.78;;;;;;;;;;5066761;28;25055;-76
2023/06/21 02:04:36;;;;;;;66.93;35.05;;;;;;;;;;5061362;28;25066;-76
2023/06/21 02:07:03;;;;;;;54.53;31.65;;;;;;;;;;5068574;28;25072;-76
2023/06/21 02:09:30;;;;;;;67.97;33.13;;;;;;;;;;5063536;28;25080;-76
2023/06/21 02:11:56;;;;;;;59.88;33.40;;;;;;;;;;5049486;28;25071;-75
2023/06/21 02:14:22;;;;;;;67.55;33.92;;;;;;;;;;5079208;28;25058;-76
2023/06/21 02:16:49;;;;;;;62.92;34.80;;;;;;;;;;5058578;28;25054;-77
2023/06/21 02:19:15;;;;;;;73.32;37.08;;;;;;;;;;5072584;28;25054;-77
2023/06/21 02:21:41;;;;;;;65.05;35.95;;;;;;;;;;5082509;28;25055;-75
2023/06/21 02:24:07;;;;;;;69.50;35.78;;;;;;;;;;5090925;28;25076;-76
2023/06/21 02:26:33;;;;;;;68.80;36.83;;;;;;;;;;5083647;28;25078;-76
2023/06/21 02:28:59;;;;;;;60.30;33.97;;;;;;;;;;5098203;28;25064;-75
2023/06/21 02:31:25;;;;;;;65.05;35.60;;;;;;;;;;5092961;28;25069;-77
2023/06/21 02:33:50;;;;;;;63.92;35.33;;;;;;;;;;5093948;28;25055;-76
2023/06/21 02:36:17;;;;;;;72.97;36.13;;;;;;;;;;5097163;28;25059;-77
2023/06/21 02:38:42;;;;;;;61.05;34.30;;;;;;;;;;5097497;28;25068;-77
2023/06/21 02:41:08;;;;;;;62.33;34.67;;;;;;;;;;5101679;28;25095;-78
2023/06/21 02:43:34;;;;;;;66.78;36.25;;;;;;;;;;5098694;28;25082;-76
2023/06/21 02:46:00;;;;;;;59.78;33.85;;;;;;;;;;5095574;28;25074;-77
2023/06/21 02:48:26;;;;;;;68.72;35.40;;;;;;;;;;5082239;28;25046;-76
2023/06/21 02:50:52;;;;;;;61.78;35.58;;;;;;;;;;5095232;28;25061;-77
2023/06/21 02:53:18;;;;;;;66.93;34.97;;;;;;;;;;5094956;28;25074;-77
2023/06/21 02:55:44;;;;;;;62.47;34.28;;;;;;;;;;5098156;28;25088;-79
2023/06/21 02:58:10;;;;;;;62.50;33.53;;;;;;;;;;5097497;28;25062;-77
2023/06/21 03:00:36;;;;;;;62.63;34.40;;;;;;;;;;5092152;28;25070;-79
2023/06/21 03:03:03;;;;;;;48.92;30.23;;;;;;;;;;5098045;28;25076;-78
2023/06/21 03:05:33;;;;;;;55.38;31.67;;;;;;;;;;5072552;28;25059;-77
2023/06/21 03:08:00;;;;;;;53.08;31.92;;;;;;;;;;5084755;28;25067;-78
2023/06/21 03:10:26;;;;;;;59.88;31.20;;;;;;;;;;5077984;28;25049;-77
2023/06/21 03:12:53;;;;;;;59.10;33.30;;;;;;;;;;5095045;28;25075;-78
2023/06/21 03:15:19;;;;;;;47.28;28.73;;;;;;;;;;5060566;28;25102;-77
2023/06/21 03:17:45;;;;;;;46.83;29.55;;;;;;;;;;5080072;28;25073;-77
2023/06/21 03:20:14;;;;;;;55.72;31.73;;;;;;;;;;5096888;28;25101;-77
2023/06/21 03:22:41;;;;;;;56.80;32.08;;;;;;;;;;5100466;28;25068;-77
2023/06/21 03:25:09;;;;;;;60.63;32.05;;;;;;;;;;5077439;28;25084;-76
2023/06/21 03:27:35;;;;;;;55.53;31.60;;;;;;;;;;5088996;28;25116;-76
2023/06/21 03:30:01;;;;;;;61.67;31.13;;;;;;;;;;5086373;28;25071;-76
2023/06/21 03:32:27;;;;;;;53.55;30.83;;;;;;;;;;5086972;28;25064;-76
2023/06/21 03:34:53;;;;;;;58.85;32.65;;;;;;;;;;5105527;28;25061;-78
2023/06/21 03:37:19;;;;;;;54.88;30.25;;;;;;;;;;5083855;28;25071;-76
2023/06/21 03:39:45;;;;;;;52.00;28.52;;;;;;;;;;5071151;28;25077;-75
2023/06/21 03:42:12;;;;;;;47.08;29.33;;;;;;;;;;5076866;28;25086;-76
2023/06/21 03:44:38;;;;;;;52.35;28.98;;;;;;;;;;5082782;28;25088;-77
2023/06/21 03:47:06;;;;;;;50.63;28.73;;;;;;;;;;5096894;28;25062;-78
2023/06/21 03:49:32;;;;;;;48.55;28.80;;;;;;;;;;5083928;28;25067;-77
2023/06/21 03:51:58;;;;;;;49.70;27.65;;;;;;;;;;5099340;28;25057;-77
2023/06/21 03:54:24;;;;;;;52.97;29.33;;;;;;;;;;5083072;28;25065;-77
2023/06/21 03:56:50;;;;;;;34.38;22.40;;;;;;;;;;5098317;28;25059;-78
2023/06/21 03:59:16;;;;;;;50.45;26.45;;;;;;;;;;5071262;28;25065;-77
2023/06/21 04:01:42;;;;;;;38.92;23.92;;;;;;;;;;5093347;28;25072;-77
2023/06/21 04:04:08;;;;;;;35.33;20.70;;;;;;;;;;5095345;28;25091;-77
2023/06/21 04:06:37;;;;;;;36.28;21.15;;;;;;;;;;5093752;28;25052;-79
2023/06/21 04:09:03;;;;;;;36.72;21.13;;;;;;;;;;5092925;28;25077;-78
2023/06/21 04:11:29;;;;;;;31.48;18.80;;;;;;;;;;5092961;28;25131;-77
2023/06/21 04:13:54;;;;;;;33.65;18.75;;;;;;;;;;5097028;28;25067;-79
2023/06/21 04:16:20;;;;;;;30.33;18.13;;;;;;;;;;5095908;28;25082;-78
2023/06/21 04:18:46;;;;;;;27.50;17.25;;;;;;;;;;5095473;28;25068;-76
2023/06/21 04:21:12;;;;;;;26.52;16.05;;;;;;;;;;5096990;28;25096;-78
2023/06/21 04:23:38;;;;;;;25.88;15.27;;;;;;;;;;5097207;28;25090;-78
2023/06/21 04:26:06;;;;;;;25.83;14.57;;;;;;;;;;5084687;28;25073;-77
2023/06/21 04:28:32;;;;;;;23.73;14.75;;;;;;;;;;5080654;28;25055;-77
2023/06/21 04:30:58;;;;;;;24.23;13.93;;;;;;;;;;5065295;28;25076;-76
2023/06/21 04:33:24;;;;;;;20.42;12.63;;;;;;;;;;5058347;28;25084;-76
2023/06/21 04:35:50;;;;;;;14.77;9.07;;;;;;;;;;5067176;28;25112;-76
2023/06/21 04:38:16;;;;;;;10.60;7.15;;;;;;;;;;5061670;28;25061;-78
2023/06/21 04:40:43;;;;;;;9.20;7.47;;;;;;;;;;5047867;28;25052;-77
2023/06/21 04:43:10;;;;;;;8.23;5.28;;;;;;;;;;5069430;28;25152;-75
2023/06/21 04:45:36;;;;;;;11.40;5.60;;;;;;;;;;5060113;28;25056;-74
2023/06/21 04:48:04;;;;;;;9.20;4.90;;;;;;;;;;5059780;28;25146;-79
2023/06/21 04:50:30;;;;;;;9.43;4.85;;;;;;;;;;5048096;28;25050;-74
2023/06/21 04:52:59;;;;;;;5.80;4.03;;;;;;;;;;5053855;28;25059;-78
2023/06/21 04:55:26;;;;;;;7.65;3.67;;;;;;;;;;5054889;28;25077;-76
2023/06/21 04:57:52;;;;;;;3.85;2.83;;;;;;;;;;5063742;28;25074;-76
2023/06/21 05:00:19;;;;;;;6.53;2.90;;;;;;;;;;5061333;28;25065;-74
2023/06/21 05:02:47;;;;;;;5.18;2.95;;;;;;;;;;5074633;28;25055;-75
2023/06/21 05:05:13;;;;;;;4.03;3.08;;;;;;;;;;5045867;28;25052;-75
2023/06/21 05:07:39;;;;;;;7.65;2.90;;;;;;;;;;5060798;28;25080;-76
2023/06/21 05:10:07;;;;;;;5.75;2.55;;;;;;;;;;5045744;28;25044;-75
2023/06/21 05:12:33;;;;;;;3.05;2.60;;;;;;;;;;5062491;28;25096;-74
2023/06/21 05:14:59;;;;;;;4.38;2.50;;;;;;;;;;5057005;28;25062;-72
2023/06/21 05:17:25;;;;;;;5.45;1.90;;;;;;;;;;5061645;28;25057;-75
2023/06/21 05:19:51;;;;;;;5.05;2.20;;;;;;;;;;5060446;28;25085;-75
2023/06/21 05:22:18;;;;;;;4.30;2.28;;;;;;;;;;5063210;28;25062;-76
2023/06/21 05:24:44;;;;;;;4.18;2.00;;;;;;;;;;5066631;28;25142;-75
2023/06/21 05:27:10;;;;;;;5.05;2.05;;;;;;;;;;5065838;28;25075;-76
2023/06/21 05:29:36;;;;;;;3.72;2.22;;;;;;;;;;5074746;28;25075;-75
2023/06/21 05:32:02;;;;;;;5.88;2.42;;;;;;;;;;5051327;28;25134;-74
2023/06/21 05:34:30;;;;;;;6.20;2.63;;;;;;;;;;5059021;28;25066;-75
2023/06/21 05:36:56;;;;;;;5.65;2.20;;;;;;;;;;5062058;28;25071;-75
2023/06/21 05:39:22;;;;;;;4.63;2.28;;;;;;;;;;5061569;28;25064;-75
2023/06/21 05:41:48;;;;;;;7.60;2.15;;;;;;;;;;5063544;28;25140;-74
2023/06/21 05:44:14;;;;;;;2.33;1.90;;;;;;;;;;5063493;28;25103;-76
2023/06/21 05:46:40;;;;;;;8.20;2.28;;;;;;;;;;5061798;28;25119;-74
2023/06/21 05:49:06;;;;;;;6.22;2.40;;;;;;;;;;5065339;28;25108;-74
2023/06/21 05:51:32;;;;;;;4.78;2.38;;;;;;;;;;5055228;28;25080;-75
2023/06/21 05:53:58;;;;;;;4.82;2.25;;;;;;;;;;5061761;28;25085;-74
2023/06/21 05:56:26;;;;;;;4.53;2.05;;;;;;;;;;5056266;28;25057;-75
2023/06/21 05:58:52;;;;;;;7.30;2.83;;;;;;;;;;5066860;28;25073;-74
2023/06/21 06:01:18;;;;;;;3.00;2.30;;;;;;;;;;5062179;28;25071;-74
2023/06/21 06:03:44;;;;;;;5.30;1.90;;;;;;;;;;5071197;28;25065;-78
2023/06/21 06:06:13;;;;;;;3.40;2.28;;;;;;;;;;5067433;28;25053;-73
2023/06/21 06:08:39;;;;;;;2.22;1.70;;;;;;;;;;5066764;28;25073;-76
2023/06/21 06:11:05;;;;;;;2.72;1.77;;;;;;;;;;5058814;28;25071;-77
2023/06/21 06:13:31;;;;;;;4.25;2.17;;;;;;;;;;5042989;28;25061;-76
2023/06/21 06:15:57;;;;;;;3.85;1.80;;;;;;;;;;5066029;28;25064;-77
2023/06/21 06:18:23;;;;;;;3.88;1.50;;;;;;;;;;5059689;28;25138;-73
2023/06/21 06:20:49;;;;;;;3.25;1.65;;;;;;;;;;5053988;28;25073;-77
2023/06/21 06:23:15;;;;;;;5.85;2.00;;;;;;;;;;5063118;28;25072;-75
2023/06/21 06:25:42;;;;;;;4.75;1.95;;;;;;;;;;5055797;28;25058;-73
2023/06/21 06:28:08;;;;;;;2.30;1.77;;;;;;;;;;5058855;28;25076;-72
2023/06/21 06:30:34;;;;;;;7.13;1.90;;;;;;;;;;5059093;28;25078;-71
2023/06/21 06:33:00;;;;;;;3.88;1.52;;;;;;;;;;5065175;28;25058;-73
2023/06/21 06:35:26;;;;;;;4.63;2.05;;;;;;;;;;5056719;28;25160;-74
2023/06/21 06:37:52;;;;;;;4.97;1.80;;;;;;;;;;5062142;28;25127;-72
2023/06/21 06:40:18;;;;;;;4.95;1.90;;;;;;;;;;5052009;28;25153;-73
2023/06/21 06:42:44;;;;;;;3.53;2.35;;;;;;;;;;5050083;28;25081;-73
2023/06/21 06:45:10;;;;;;;4.07;1.77;;;;;;;;;;5059161;28;25072;-75
2023/06/21 06:47:36;;;;;;;2.83;2.00;;;;;;;;;;5056071;28;25051;-73
2023/06/21 06:50:05;;;;;;;3.78;2.13;;;;;;;;;;5063048;28;25147;-72
2023/06/21 06:52:31;;;;;;;3.13;1.83;;;;;;;;;;5061512;28;25130;-72
2023/06/21 06:54:57;;;;;;;4.28;1.85;;;;;;;;;;5065266;28;25138;-71
2023/06/21 06:57:24;;;;;;;2.45;1.35;;;;;;;;;;5062647;28;25060;-72
2023/06/21 06:59:50;;;;;;;3.78;1.75;;;;;;;;;;5061264;28;25051;-76
2023/06/21 07:02:16;;;;;;;4.88;1.83;;;;;;;;;;5066969;28;25136;-70
2023/06/21 07:04:42;;;;;;;4.35;1.92;;;;;;;;;;5041559;28;25078;-71
2023/06/21 07:07:08;;;;;;;6.57;1.98;;;;;;;;;;5067412;28;25097;-72
2023/06/21 07:09:34;;;;;;;2.38;1.70;;;;;;;;;;5074822;28;25089;-73
2023/06/21 07:12:01;;;;;;;4.18;1.90;;;;;;;;;;5076920;28;25152;-71
2023/06/21 07:14:28;;;;;;;5.55;2.15;;;;;;;;;;5074269;28;25054;-73
2023/06/21 07:16:54;;;;;;;4.95;1.63;;;;;;;;;;5066555;28;25073;-74
2023/06/21 07:19:20;;;;;;;4.50;1.85;;;;;;;;;;5061752;28;25087;-70
2023/06/21 07:21:46;;;;;;;4.95;1.48;;;;;;;;;;5063953;28;25067;-73
2023/06/21 07:24:12;;;;;;;3.95;2.13;;;;;;;;;;5062811;28;25097;-71
2023/06/21 07:26:39;;;;;;;2.05;1.45;;;;;;;;;;5054864;28;25091;-73
2023/06/21 07:29:05;;;;;;;2.88;1.80;;;;;;;;;;5062105;28;25097;-73
2023/06/21 07:31:34;;;;;;;3.58;1.70;;;;;;;;;;5047155;28;25166;-73
2023/06/21 07:34:03;;;;;;;11.93;1.75;;;;;;;;;;5065209;28;25064;-75
2023/06/21 07:36:29;;;;;;;3.13;1.55;;;;;;;;;;5056645;28;25108;-77
2023/06/21 07:38:55;;;;;;;4.50;1.85;;;;;;;;;;5067220;28;25150;-74
2023/06/21 07:41:21;;;;;;;5.63;2.25;;;;;;;;;;5039068;28;25056;-73
2023/06/21 07:43:47;;;;;;;3.10;1.60;;;;;;;;;;5058685;28;25067;-73
2023/06/21 07:46:13;;;;;;;5.43;2.47;;;;;;;;;;5048039;28;25070;-74
2023/06/21 07:48:39;;;;;;;3.22;2.17;;;;;;;;;;5047648;28;25074;-76
2023/06/21 07:51:05;;;;;;;2.53;1.58;;;;;;;;;;5065084;28;25069;-74
2023/06/21 07:53:31;;;;;;;4.88;2.05;;;;;;;;;;5061873;28;25075;-71
2023/06/21 07:56:00;;;;;;;3.67;2.00;;;;;;;;;;5058757;28;25050;-73
2023/06/21 07:58:26;;;;;;;3.15;2.00;;;;;;;;;;5058341;28;25072;-73
2023/06/21 08:00:52;;;;;;;5.53;2.00;;;;;;;;;;5059360;28;25053;-75
2023/06/21 08:03:17;;;;;;;6.15;2.10;;;;;;;;;;5054840;28;25185;-75
2023/06/21 08:05:43;;;;;;;7.13;2.63;;;;;;;;;;5061991;28;25069;-76
2023/06/21 08:08:09;;;;;;;4.38;2.47;;;;;;;;;;5069405;28;25099;-78
2023/06/21 08:10:35;;;;;;;5.95;2.65;;;;;;;;;;5065645;28;25109;-75
2023/06/21 08:13:01;;;;;;;6.88;3.22;;;;;;;;;;5060236;28;25066;-77
2023/06/21 08:15:27;;;;;;;6.93;3.13;;;;;;;;;;5080753;28;25054;-72
2023/06/21 08:17:53;;;;;;;12.90;3.95;;;;;;;;;;5093835;28;25025;-75
2023/06/21 08:20:19;;;;;;;5.55;3.03;;;;;;;;;;5072501;28;25175;-70
2023/06/21 08:22:45;;;;;;;3.90;2.58;;;;;;;;;;5073341;28;25112;-74
2023/06/21 08:25:11;;;;;;;6.47;3.20;;;;;;;;;;5059567;28;25059;-74
2023/06/21 08:27:37;;;;;;;5.30;3.47;;;;;;;;;;5061642;28;25061;-75
2023/06/21 08:30:03;;;;;;;7.63;3.05;;;;;;;;;;5058205;28;25062;-74
2023/06/21 08:32:29;;;;;;;3.58;3.00;;;;;;;;;;5057972;28;25071;-74
2023/06/21 08:34:55;;;;;;;4.97;2.65;;;;;;;;;;5059599;28;25063;-72
2023/06/21 08:37:25;;;;;;;5.70;2.65;;;;;;;;;;5055820;28;25112;-70
2023/06/21 08:39:52;;;;;;;5.60;3.40;;;;;;;;;;5059983;28;25032;-70
2023/06/21 08:42:18;;;;;;;4.38;2.72;;;;;;;;;;5063881;28;25055;-73
2023/06/21 08:44:45;;;;;;;3.85;2.60;;;;;;;;;;5059576;28;25099;-70
2023/06/21 08:47:11;;;;;;;5.57;3.28;;;;;;;;;;5035380;28;25135;-71
2023/06/21 08:49:41;;;;;;;4.55;2.67;;;;;;;;;;5063344;28;25080;-69
2023/06/21 08:52:10;;;;;;;5.25;2.65;;;;;;;;;;5069024;28;25067;-69
2023/06/21 08:54:36;;;;;;;4.35;2.03;;;;;;;;;;5061837;28;25061;-70
2023/06/21 08:57:05;;;;;;;17.90;3.47;;;;;;;;;;5063055;28;25106;-71
2023/06/21 08:59:35;;;;;;;4.25;2.20;;;;;;;;;;5049764;28;25061;-70
2023/06/21 09:02:15;;;;;;;3.33;1.98;;;;;;;;;;5061467;28;25081;-68
2023/06/21 09:04:44;;;;;;;5.18;2.63;;;;;;;;;;5061168;28;25177;-70
2023/06/21 09:07:11;;;;;;;7.25;3.03;;;;;;;;;;5063292;28;25047;-70
2023/06/21 09:09:37;;;;;;;4.65;2.65;;;;;;;;;;5060953;28;25174;-69
2023/06/21 09:12:04;;;;;;;4.05;2.33;;;;;;;;;;5064598;28;25076;-70
2023/06/21 09:14:31;;;;;;;6.07;2.45;;;;;;;;;;5062419;28;25055;-72
2023/06/21 09:17:00;;;;;;;2.90;2.33;;;;;;;;;;5046881;28;25055;-71
2023/06/21 09:19:27;;;;;;;4.03;3.05;;;;;;;;;;5065592;28;25072;-73
2023/06/21 09:21:54;;;;;;;3.97;2.10;;;;;;;;;;5076403;28;25061;-73
2023/06/21 09:24:20;;;;;;;4.10;2.60;;;;;;;;;;5062583;28;25075;-72
2023/06/21 09:26:46;;;;;;;3.10;2.80;;;;;;;;;;5040010;28;25133;-72
2023/06/21 09:29:12;;;;;;;4.50;2.65;;;;;;;;;;5068930;28;25054;-71
2023/06/21 09:31:38;;;;;;;5.57;2.97;;;;;;;;;;5065181;28;25106;-73
2023/06/21 09:34:04;;;;;;;5.88;2.30;;;;;;;;;;5065777;28;25067;-73
2023/06/21 09:36:30;;;;;;;2.70;2.10;;;;;;;;;;5063577;28;25076;-72
2023/06/21 09:39:09;;;;;;;3.70;2.40;;;;;;;;;;5067798;28;25060;-74
2023/06/21 09:41:36;;;;;;;4.43;2.38;;;;;;;;;;5057058;28;25067;-72
2023/06/21 09:44:02;;;;;;;4.05;2.80;;;;;;;;;;5053514;28;25102;-72
2023/06/21 09:46:28;;;;;;;6.85;3.35;;;;;;;;;;5060507;28;25065;-71
2023/06/21 09:48:54;;;;;;;4.25;1.85;;;;;;;;;;5051943;28;25049;-71
2023/06/21 09:51:23;;;;;;;4.50;2.38;;;;;;;;;;5047942;28;25064;-72
2023/06/21 09:53:52;;;;;;;5.57;2.15;;;;;;;;;;5057651;28;25066;-72
2023/06/21 09:56:19;;;;;;;3.05;2.55;;;;;;;;;;5044595;28;25063;-74
2023/06/21 09:58:48;;;;;;;2.45;1.98;;;;;;;;;;5038951;28;25055;-72
2023/06/21 10:01:15;;;;;;;4.55;1.98;;;;;;;;;;5063043;28;25095;-72
2023/06/21 10:03:43;;;;;;;4.15;2.45;;;;;;;;;;5058251;28;25108;-73
2023/06/21 10:06:14;;;;;;;6.07;2.80;;;;;;;;;;5039782;28;25042;-73
2023/06/21 10:08:40;;;;;;;9.20;3.13;;;;;;;;;;5054674;28;25079;-72
2023/06/21 10:11:06;;;;;;;4.65;2.33;;;;;;;;;;5044300;28;25073;-73
2023/06/21 10:13:33;;;;;;;4.78;2.45;;;;;;;;;;5059530;28;25077;-71
2023/06/21 10:16:00;;;;;;;6.65;2.85;;;;;;;;;;5060617;28;25055;-73
2023/06/21 10:18:26;;;;;;;3.10;1.98;;;;;;;;;;5058407;28;25074;-72
2023/06/21 10:20:54;;;;;;;4.38;1.85;;;;;;;;;;5059063;28;25428;-73
2023/06/21 10:23:21;;;;;;;3.85;2.00;;;;;;;;;;5064854;28;25050;-72
2023/06/21 10:25:47;;;;;;;4.20;2.00;;;;;;;;;;5060306;28;25063;-72
2023/06/21 10:28:15;;;;;;;3.92;1.58;;;;;;;;;;5070225;28;25051;-72
2023/06/21 10:30:42;;;;;;;5.18;2.13;;;;;;;;;;5070205;28;25102;-70
2023/06/21 10:33:09;;;;;;;5.43;2.08;;;;;;;;;;5038669;28;25057;-71
2023/06/21 10:35:36;;;;;;;3.10;1.70;;;;;;;;;;5068589;28;25067;-71
2023/06/21 10:38:20;;;;;;;2.58;1.88;;;;;;;;;;5064776;28;25051;-75
2023/06/21 10:40:47;;;;;;;2.53;2.03;;;;;;;;;;5075120;28;25076;-73
2023/06/21 10:43:13;;;;;;;4.53;2.22;;;;;;;;;;5072884;28;25079;-72
2023/06/21 10:45:41;;;;;;;3.65;1.70;;;;;;;;;;5069148;28;25071;-74
2023/06/21 10:48:09;;;;;;;2.45;1.90;;;;;;;;;;5061816;28;25060;-72
2023/06/21 10:50:35;;;;;;;2.83;1.70;;;;;;;;;;5063716;28;25054;-70
2023/06/21 10:53:02;;;;;;;3.53;2.10;;;;;;;;;;5064882;28;25109;-72
2023/06/21 10:55:28;;;;;;;3.63;2.05;;;;;;;;;;5064749;28;25187;-79
2023/06/21 10:57:55;;;;;;;2.03;1.40;;;;;;;;;;5045696;28;25105;-74
2023/06/21 11:00:25;;;;;;;2.97;1.35;;;;;;;;;;5074058;28;25132;-73
2023/06/21 11:02:51;;;;;;;3.10;1.70;;;;;;;;;;5069865;28;25101;-73
2023/06/21 11:05:24;;;;;;;3.88;1.10;;;;;;;;;;5067777;28;25146;-72
2023/06/21 11:07:50;;;;;;;1.33;1.23;;;;;;;;;;5068631;28;25054;-72
2023/06/21 11:10:16;;;;;;;2.88;1.20;;;;;;;;;;5071026;28;25102;-72
2023/06/21 11:12:43;;;;;;;2.15;1.10;;;;;;;;;;5064173;28;25072;-71
2023/06/21 11:15:09;;;;;;;2.25;1.27;;;;;;;;;;5068931;28;25101;-72
2023/06/21 11:17:35;;;;;;;1.67;1.38;;;;;;;;;;5066411;28;25059;-72
2023/06/21 11:20:22;;;;;;;1.77;1.33;;;;;;;;;;5067258;28;25065;-75
2023/06/21 11:22:58;;;;;;;5.03;2.00;;;;;;;;;;5067332;28;25060;-73
2023/06/21 11:25:25;;;;;;;2.03;1.58;;;;;;;;;;5071632;28;25158;-72
2023/06/21 11:28:09;;;;;;;8.35;1.73;;;;;;;;;;5065122;28;25112;-72
2023/06/21 11:30:37;;;;;;;3.95;1.42;;;;;;;;;;5068625;28;25147;-70
2023/06/21 11:33:02;;;;;;;3.83;2.03;;;;;;;;;;5054351;28;25064;-73
2023/06/21 11:35:49;;;;;;;3.00;2.42;;;;;;;;;;5069701;28;25110;-73
2023/06/21 11:38:17;;;;;;;3.92;2.33;;;;;;;;;;5036088;28;25071;-71
2023/06/21 11:40:43;;;;;;;1.95;1.75;;;;;;;;;;5077902;28;25073;-74
2023/06/21 11:43:15;;;;;;;4.55;2.17;;;;;;;;;;5069120;28;25055;-72
2023/06/21 11:45:41;;;;;;;;;;;;;;;;;;5070330;28;25070;-75
2023/06/21 11:48:10;;;;;;;2.60;1.90;;;;;;;;;;5075152;28;25066;-71
2023/06/21 11:50:46;;;;;;;2.80;1.80;;;;;;;;;;5070441;28;25061;-71
2023/06/21 11:53:23;;;;;;;3.53;1.40;;;;;;;;;;5061046;28;25086;-70
2023/06/21 11:55:56;;;;;;;5.15;2.50;;;;;;;;;;5061472;28;25050;-72
2023/06/21 11:58:22;;;;;;;3.25;2.20;;;;;;;;;;5075518;28;25060;-72
2023/06/21 12:00:49;;;;;;;5.97;3.65;;;;;;;;;;5072409;28;25063;-73
2023/06/21 12:03:15;;;;;;;7.55;3.78;;;;;;;;;;5071929;28;25133;-71
2023/06/21 12:05:44;;;;;;;7.10;4.10;;;;;;;;;;5067474;28;25091;-73
2023/06/21 12:08:10;;;;;;;6.35;4.53;;;;;;;;;;5065979;28;25118;-73
2023/06/21 12:10:36;;;;;;;7.93;5.13;;;;;;;;;;5065262;28;25067;-70
2023/06/21 12:13:06;;;;;;;6.60;4.90;;;;;;;;;;5063553;28;25078;-72
2023/06/21 12:15:32;;;;;;;10.32;5.57;;;;;;;;;;5048164;28;25049;-70
2023/06/21 12:17:58;;;;;;;6.47;5.10;;;;;;;;;;5044334;28;25076;-70
2023/06/21 12:20:24;;;;;;;10.88;7.43;;;;;;;;;;5072862;28;25120;-71
2023/06/21 12:22:50;;;;;;;12.50;7.93;;;;;;;;;;5062866;28;25061;-72
2023/06/21 12:25:16;;;;;;;10.05;6.85;;;;;;;;;;5062698;28;25099;-70
2023/06/21 12:27:52;;;;;;;8.27;6.70;;;;;;;;;;5057519;28;25079;-73
2023/06/21 12:30:18;;;;;;;8.77;7.05;;;;;;;;;;5064757;28;25051;-70
2023/06/21 12:32:46;;;;;;;9.85;6.95;;;;;;;;;;5062692;28;25069;-72
2023/06/21 12:35:12;;;;;;;11.63;8.75;;;;;;;;;;5065983;28;25134;-74
2023/06/21 12:37:39;;;;;;;10.95;7.97;;;;;;;;;;5042337;28;25065;-71
2023/06/21 12:40:06;;;;;;;8.95;6.85;;;;;;;;;;5063083;28;25071;-72
2023/06/21 12:42:32;;;;;;;8.63;7.55;;;;;;;;;;5067043;28;25082;-72
2023/06/21 12:44:58;;;;;;;10.57;7.40;;;;;;;;;;5061721;28;25098;-72
2023/06/21 12:47:25;;;;;;;9.77;7.55;;;;;;;;;;5060017;28;25121;-71
2023/06/21 12:50:00;;;;;;;14.05;8.80;;;;;;;;;;5030181;28;25176;-71
2023/06/21 12:52:28;;;;;;;13.50;8.90;;;;;;;;;;5044354;28;25060;-70
2023/06/21 12:54:58;;;;;;;13.75;9.93;;;;;;;;;;5068410;28;25079;-73
2023/06/21 12:57:31;;;;;;;13.13;10.93;;;;;;;;;;5064513;28;25094;-71
2023/06/21 12:59:57;;;;;;;15.23;10.02;;;;;;;;;;5053165;28;25178;-71
2023/06/21 13:02:26;;;;;;;17.55;11.93;;;;;;;;;;5062782;28;25146;-69
2023/06/21 13:04:55;;;;;;;14.52;11.40;;;;;;;;;;5058153;28;25073;-71
2023/06/21 13:07:21;;;;;;;14.45;11.70;;;;;;;;;;5042727;28;25141;-73
2023/06/21 13:09:48;;;;;;;14.93;12.60;;;;;;;;;;5056384;28;25058;-69
2023/06/21 13:12:14;;;;;;;17.40;12.43;;;;;;;;;;5061314;28;25105;-69
2023/06/21 13:14:39;;;;;;;16.52;12.10;;;;;;;;;;5062827;28;25102;-72
2023/06/21 13:17:05;;;;;;;19.42;12.65;;;;;;;;;;5041941;28;25055;-72
2023/06/21 13:19:31;;;;;;;18.35;14.38;;;;;;;;;;5061286;28;25058;-71
2023/06/21 13:21:57;;;;;;;17.92;12.65;;;;;;;;;;5067838;28;25124;-76
2023/06/21 13:24:23;;;;;;;20.77;13.57;;;;;;;;;;5054141;28;25044;-71
2023/06/21 13:26:50;;;;;;;14.73;11.23;;;;;;;;;;5068792;28;25064;-71
2023/06/21 13:29:16;;;;;;;15.13;11.45;;;;;;;;;;5063101;28;25137;-70
2023/06/21 13:31:42;;;;;;;13.10;10.00;;;;;;;;;;5059964;28;25099;-72
2023/06/21 13:34:08;;;;;;;11.10;9.38;;;;;;;;;;5057809;28;25118;-72
2023/06/21 13:36:33;;;;;;;11.32;7.70;;;;;;;;;;5060787;28;25060;-75
2023/06/21 13:38:59;;;;;;;8.43;7.05;;;;;;;;;;5038299;28;25050;-73
2023/06/21 13:41:25;;;;;;;9.55;7.00;;;;;;;;;;5060995;28;25073;-71
2023/06/21 13:43:51;;;;;;;12.63;8.27;;;;;;;;;;5061474;28;25116;-71
2023/06/21 13:46:17;;;;;;;9.88;7.18;;;;;;;;;;5064707;28;25094;-72
2023/06/21 13:48:44;;;;;;;10.55;6.57;;;;;;;;;;5065498;28;25102;-70
2023/06/21 13:51:09;;;;;;;7.18;5.97;;;;;;;;;;5042848;28;25072;-71
2023/06/21 13:53:35;;;;;;;8.57;5.82;;;;;;;;;;5060205;28;25118;-75
2023/06/21 13:56:02;;;;;;;5.93;4.30;;;;;;;;;;5057788;28;25066;-71
2023/06/21 13:58:29;;;;;;;6.35;3.50;;;;;;;;;;5043500;28;25054;-72
2023/06/21 14:00:55;;;;;;;4.05;3.20;;;;;;;;;;5061856;28;25160;-71
2023/06/21 14:03:21;;;;;;;4.38;3.15;;;;;;;;;;5067035;28;25083;-70
2023/06/21 14:05:47;;;;;;;6.95;3.20;;;;;;;;;;5062743;28;25049;-71
2023/06/21 14:08:13;;;;;;;3.30;2.65;;;;;;;;;;5068150;28;25050;-75
2023/06/21 14:10:39;;;;;;;2.97;2.63;;;;;;;;;;5045889;28;25074;-71
2023/06/21 14:13:05;;;;;;;4.55;2.20;;;;;;;;;;5064744;28;25106;-71
2023/06/21 14:15:31;;;;;;;2.53;2.08;;;;;;;;;;5060889;28;25084;-72
2023/06/21 14:18:02;;;;;;;2.10;1.80;;;;;;;;;;5074036;28;25072;-72
2023/06/21 14:20:28;;;;;;;6.70;2.65;;;;;;;;;;5067916;28;25062;-72
2023/06/21 14:22:54;;;;;;;5.68;3.03;;;;;;;;;;5068868;28;25057;-74
2023/06/21 14:25:20;;;;;;;3.30;2.35;;;;;;;;;;5069389;28;25084;-72
2023/06/21 14:27:47;;;;;;;1.90;1.50;;;;;;;;;;5060752;28;25120;-73
2023/06/21 14:30:14;;;;;;;1.65;1.15;;;;;;;;;;5069243;28;25134;-72
2023/06/21 14:32:41;;;;;;;1.65;1.52;;;;;;;;;;5064937;28;25054;-70